Time;durP1;ratioP1;P1;durP2;ratioP2;P2;SDS_P1;SDS_P2;PMS_P1;PMS_P2;Temp;Humidity;BMP_temperature;BMP_pressure;BME280_temperature;BME280_humidity;BME280_pressure;Samples;Min_cycle;Max_cycle;Signal;HPM_P1;HPM_P2
2023/05/15 00:03:02;;;;;;;3.20;2.22;;;18.00;59.40;;;;;;6004344;29;20042;-75
2023/05/15 00:06:15;;;;;;;4.03;1.73;;;18.10;59.10;;;;;;6002840;29;20048;-73
2023/05/15 00:09:22;;;;;;;4.03;2.35;;;18.10;58.80;;;;;;6003430;29;20042;-75
2023/05/15 00:12:30;;;;;;;8.90;2.03;;;18.10;58.50;;;;;;6001923;29;20045;-74
2023/05/15 00:15:36;;;;;;;7.43;2.00;;;18.10;58.30;;;;;;6003494;29;20125;-73
2023/05/15 00:18:45;;;;;;;5.05;1.92;;;18.10;58.00;;;;;;6003877;29;20038;-73
2023/05/15 00:21:56;;;;;;;2.28;1.67;;;18.10;57.80;;;;;;5998252;29;20026;-74
2023/05/15 00:25:09;;;;;;;4.13;1.80;;;18.10;57.70;;;;;;5981224;29;20054;-73
2023/05/15 00:28:17;;;;;;;2.75;2.00;;;18.10;57.60;;;;;;5958721;29;20046;-73
2023/05/15 00:31:22;;;;;;;3.92;2.20;;;18.00;57.50;;;;;;5957739;29;20041;-73
2023/05/15 00:34:30;;;;;;;2.33;1.73;;;18.00;57.50;;;;;;5972667;29;20046;-76
2023/05/15 00:37:36;;;;;;;4.28;1.42;;;18.00;57.60;;;;;;5957250;29;20045;-75
2023/05/15 00:40:43;;;;;;;2.50;1.80;;;18.00;57.60;;;;;;5958375;29;20059;-73
2023/05/15 00:43:53;;;;;;;2.28;1.70;;;18.00;57.60;;;;;;5957538;29;20074;-75
2023/05/15 00:47:04;;;;;;;2.65;1.65;;;18.00;57.50;;;;;;5972049;29;20050;-74
2023/05/15 00:50:15;;;;;;;2.78;1.88;;;18.00;57.50;;;;;;5972405;29;20095;-75
2023/05/15 00:53:23;;;;;;;4.50;1.73;;;18.00;57.50;;;;;;5958694;29;20063;-73
2023/05/15 00:56:30;;;;;;;6.03;2.10;;;18.00;57.50;;;;;;5979260;29;20157;-74
2023/05/15 00:59:36;;;;;;;2.50;1.70;;;18.00;57.60;;;;;;5981027;29;20102;-74
2023/05/15 01:02:43;;;;;;;2.95;1.70;;;18.00;57.70;;;;;;5981194;29;20110;-75
2023/05/15 01:05:50;;;;;;;2.88;1.70;;;18.00;57.70;;;;;;5979904;29;20058;-74
2023/05/15 01:09:01;;;;;;;2.88;1.90;;;18.00;57.70;;;;;;5981643;29;20034;-75
2023/05/15 01:12:11;;;;;;;4.22;1.73;;;18.00;57.80;;;;;;5981489;29;20034;-74
2023/05/15 01:15:20;;;;;;;5.25;2.22;;;18.10;58.10;;;;;;5979334;29;20057;-74
2023/05/15 01:18:34;;;;;;;3.15;2.30;;;18.00;58.20;;;;;;5980569;29;20090;-74
2023/05/15 01:21:39;;;;;;;2.65;1.88;;;18.10;58.50;;;;;;5980870;29;20127;-73
2023/05/15 01:24:48;;;;;;;;;;;18.20;58.50;;;;;;5981074;29;20126;-74
2023/05/15 01:28:03;;;;;;;6.57;1.80;;;18.10;58.40;;;;;;5984890;29;19936;-73
2023/05/15 01:31:18;;;;;;;2.50;1.70;;;18.00;58.00;;;;;;5984683;29;20580;-73
2023/05/15 01:34:28;;;;;;;1.80;1.58;;;18.00;58.10;;;;;;5984443;29;20030;-76
2023/05/15 01:37:43;;;;;;;2.35;1.90;;;18.00;57.90;;;;;;5984624;29;20078;-74
2023/05/15 01:41:16;;;;;;;2.75;1.75;;;18.00;57.80;;;;;;5968846;29;20533;-76
2023/05/15 01:44:29;;;;;;;;;;;17.90;57.60;;;;;;5985101;29;20034;-75
2023/05/15 01:47:46;;;;;;;2.47;1.80;;;18.00;57.50;;;;;;5982897;29;19935;-76
2023/05/15 01:51:00;;;;;;;3.38;2.20;;;17.90;57.30;;;;;;5997329;29;20042;-76
2023/05/15 01:54:10;;;;;;;3.97;1.90;;;17.90;57.20;;;;;;5984554;29;20083;-73
2023/05/15 01:57:23;;;;;;;3.92;2.13;;;17.90;57.30;;;;;;5998160;29;20046;-75
2023/05/15 02:00:36;;;;;;;5.00;1.95;;;17.80;57.30;;;;;;5982728;29;20033;-76
2023/05/15 02:03:43;;;;;;;2.55;1.75;;;17.80;57.40;;;;;;5998450;29;20046;-73
2023/05/15 02:06:55;;;;;;;4.07;2.25;;;17.80;57.40;;;;;;5970612;29;20038;-72
2023/05/15 02:10:08;;;;;;;3.28;2.25;;;17.70;57.40;;;;;;5989688;29;20030;-77
2023/05/15 02:13:21;;;;;;;5.13;2.00;;;17.70;57.40;;;;;;5987902;29;20144;-74
2023/05/15 02:16:28;;;;;;;3.25;1.92;;;17.70;57.50;;;;;;5982921;29;20144;-74
2023/05/15 02:19:37;;;;;;;7.00;2.20;;;17.70;57.50;;;;;;5982473;29;20045;-73
2023/05/15 02:22:45;;;;;;;3.50;2.33;;;17.70;57.60;;;;;;5997441;29;20048;-73
2023/05/15 02:26:15;;;;;;;7.82;2.50;;;17.60;57.60;;;;;;5981977;29;20475;-74
2023/05/15 02:29:34;;;;;;;5.47;2.58;;;17.70;57.70;;;;;;5983629;29;20034;-75
2023/05/15 02:32:55;;;;;;;6.03;2.45;;;17.70;57.60;;;;;;5981975;29;20030;-73
2023/05/15 02:36:29;;;;;;;3.78;2.10;;;17.60;57.70;;;;;;5981530;29;20147;-74
2023/05/15 02:39:37;;;;;;;5.20;2.25;;;17.60;57.80;;;;;;5976167;29;20080;-75
2023/05/15 02:42:48;;;;;;;3.65;2.33;;;17.70;57.80;;;;;;5959469;29;20046;-75
2023/05/15 02:45:55;;;;;;;2.70;2.10;;;17.70;58.00;;;;;;5974502;29;20498;-74
2023/05/15 02:49:04;;;;;;;5.65;2.25;;;17.70;58.30;;;;;;5944412;29;20031;-74
2023/05/15 02:52:17;;;;;;;4.40;2.15;;;17.70;58.40;;;;;;5974521;29;20115;-75
2023/05/15 02:55:22;;;;;;;3.25;2.17;;;17.60;58.50;;;;;;5944386;29;20091;-73
2023/05/15 02:58:29;;;;;;;5.85;2.58;;;17.60;58.50;;;;;;5973780;29;20049;-73
2023/05/15 03:01:36;;;;;;;6.88;2.75;;;17.60;58.50;;;;;;5959540;29;20099;-74
2023/05/15 03:04:42;;;;;;;3.42;2.40;;;17.60;58.40;;;;;;5958932;29;20039;-72
2023/05/15 03:07:50;;;;;;;5.57;2.58;;;17.60;58.30;;;;;;5960353;29;20093;-75
2023/05/15 03:11:06;;;;;;;3.67;2.75;;;17.60;58.30;;;;;;5970199;29;20038;-73
2023/05/15 03:14:17;;;;;;;5.28;2.28;;;17.60;58.20;;;;;;5983392;29;20099;-74
2023/05/15 03:17:25;;;;;;;5.53;2.72;;;17.60;58.20;;;;;;5985139;29;20039;-73
2023/05/15 03:20:33;;;;;;;3.50;2.42;;;17.60;58.20;;;;;;5985165;29;20515;-75
2023/05/15 03:23:39;;;;;;;4.20;2.42;;;17.60;58.30;;;;;;5985000;29;20087;-73
2023/05/15 03:26:53;;;;;;;5.18;2.63;;;17.50;58.30;;;;;;5984286;29;20042;-73
2023/05/15 03:30:03;;;;;;;5.18;3.03;;;17.50;58.30;;;;;;5984765;29;20506;-74
2023/05/15 03:33:15;;;;;;;4.05;2.90;;;17.50;58.30;;;;;;5982005;29;20567;-74
2023/05/15 03:36:23;;;;;;;7.82;3.17;;;17.40;58.40;;;;;;5998759;29;20101;-73
2023/05/15 03:39:32;;;;;;;3.60;2.85;;;17.40;58.60;;;;;;5984795;29;20039;-74
2023/05/15 03:42:38;;;;;;;5.28;3.05;;;17.40;58.60;;;;;;5984602;29;20125;-73
2023/05/15 03:45:46;;;;;;;8.70;3.40;;;17.30;58.60;;;;;;5986007;29;20030;-74
2023/05/15 03:48:57;;;;;;;4.70;2.85;;;17.30;58.70;;;;;;5985824;29;20166;-73
2023/05/15 03:52:10;;;;;;;4.10;3.08;;;17.30;58.70;;;;;;5982705;29;20050;-74
2023/05/15 03:55:17;;;;;;;7.90;3.70;;;17.30;58.70;;;;;;5967148;29;20185;-76
2023/05/15 03:58:30;;;;;;;5.97;3.67;;;17.30;58.70;;;;;;5983014;29;20041;-72
2023/05/15 04:01:39;;;;;;;5.13;3.80;;;17.40;58.80;;;;;;5984966;29;20283;-74
2023/05/15 04:04:51;;;;;;;4.78;3.28;;;17.30;58.70;;;;;;5997653;29;20034;-73
2023/05/15 04:07:59;;;;;;;4.13;3.00;;;17.30;58.80;;;;;;5958806;29;20155;-73
2023/05/15 04:11:12;;;;;;;6.30;3.75;;;17.30;58.90;;;;;;5967880;29;20442;-74
2023/05/15 04:14:22;;;;;;;7.07;3.90;;;17.30;59.00;;;;;;5981477;29;20034;-74
2023/05/15 04:17:32;;;;;;;5.47;3.42;;;17.30;59.00;;;;;;5981138;29;20050;-72
2023/05/15 04:20:37;;;;;;;5.22;3.75;;;17.20;59.10;;;;;;5982562;29;20062;-73
2023/05/15 04:23:43;;;;;;;5.38;3.38;;;17.30;59.10;;;;;;5995851;29;20069;-75
2023/05/15 04:26:51;;;;;;;4.97;2.97;;;17.30;59.20;;;;;;5982190;29;20099;-75
2023/05/15 04:29:57;;;;;;;4.63;2.97;;;17.20;59.10;;;;;;5981731;29;20035;-74
2023/05/15 04:33:09;;;;;;;8.93;3.05;;;17.30;59.20;;;;;;5995215;29;20034;-74
2023/05/15 04:36:21;;;;;;;3.88;2.95;;;17.30;59.30;;;;;;5965794;29;20042;-73
2023/05/15 04:39:28;;;;;;;3.95;3.20;;;17.30;59.30;;;;;;5981675;29;20054;-74
2023/05/15 04:42:35;;;;;;;4.60;3.28;;;17.30;59.20;;;;;;5964874;29;20117;-73
2023/05/15 04:45:43;;;;;;;5.38;3.22;;;17.30;59.20;;;;;;5981790;29;20030;-75
2023/05/15 04:48:53;;;;;;;4.53;3.30;;;17.30;59.20;;;;;;5995355;29;20035;-73
2023/05/15 04:52:10;;;;;;;3.75;2.85;;;17.30;59.20;;;;;;6002926;29;20086;-73
2023/05/15 04:55:23;;;;;;;6.68;3.72;;;17.30;59.80;;;;;;6005408;29;20065;-74
2023/05/15 04:58:34;;;;;;;5.15;3.42;;;17.30;59.10;;;;;;5980044;29;20038;-75
2023/05/15 05:01:40;;;;;;;6.78;3.78;;;17.40;59.20;;;;;;5984160;29;20034;-76
2023/05/15 05:04:58;;;;;;;5.78;3.50;;;17.40;59.10;;;;;;5984238;29;20171;-75
2023/05/15 05:08:09;;;;;;;6.28;3.22;;;17.40;59.00;;;;;;5983775;29;20061;-74
2023/05/15 05:11:18;;;;;;;7.78;3.97;;;17.50;58.90;;;;;;5984362;29;20058;-75
2023/05/15 05:14:26;;;;;;;8.68;4.20;;;17.50;58.80;;;;;;5984231;29;20038;-76
2023/05/15 05:17:31;;;;;;;4.85;3.20;;;17.50;58.80;;;;;;5988078;29;20038;-75
2023/05/15 05:20:40;;;;;;;7.18;3.78;;;17.60;58.70;;;;;;5985446;29;20059;-74
2023/05/15 05:23:48;;;;;;;5.18;3.65;;;17.60;58.60;;;;;;5984119;29;20049;-76
2023/05/15 05:26:59;;;;;;;5.95;3.45;;;17.60;58.60;;;;;;5983653;29;20058;-75
2023/05/15 05:30:26;;;;;;;9.27;3.75;;;17.60;58.60;;;;;;5984941;29;20026;-74
2023/05/15 05:33:34;;;;;;;5.10;3.75;;;17.60;58.50;;;;;;5985003;29;20057;-76
2023/05/15 05:36:41;;;;;;;3.50;2.97;;;17.60;58.50;;;;;;5968943;29;20117;-75
2023/05/15 05:39:48;;;;;;;6.25;3.72;;;17.60;58.50;;;;;;5970081;29;20042;-74
2023/05/15 05:42:58;;;;;;;4.22;3.03;;;17.70;58.50;;;;;;5983633;29;20086;-74
2023/05/15 05:46:09;;;;;;;5.47;3.90;;;17.70;58.40;;;;;;5984888;29;20435;-74
2023/05/15 05:49:15;;;;;;;9.90;3.95;;;17.80;58.40;;;;;;5984818;29;20026;-74
2023/05/15 05:52:22;;;;;;;4.85;3.65;;;17.90;58.30;;;;;;5993866;29;20086;-76
2023/05/15 05:55:31;;;;;;;6.57;4.63;;;17.90;58.20;;;;;;6006714;29;20026;-76
2023/05/15 05:58:38;;;;;;;6.93;3.78;;;18.00;57.90;;;;;;6006368;29;20057;-75
2023/05/15 06:01:49;;;;;;;5.43;3.60;;;18.10;57.70;;;;;;5984945;29;20049;-76
2023/05/15 06:05:00;;;;;;;4.43;3.38;;;18.20;57.60;;;;;;5984753;29;20027;-75
2023/05/15 06:08:08;;;;;;;6.55;4.07;;;18.40;57.30;;;;;;5984551;29;20030;-77
2023/05/15 06:11:18;;;;;;;7.68;4.63;;;18.50;56.90;;;;;;5982891;29;20098;-75
2023/05/15 06:14:28;;;;;;;7.97;4.18;;;18.60;56.70;;;;;;5967932;29;20072;-76
2023/05/15 06:17:33;;;;;;;7.20;3.95;;;18.70;56.50;;;;;;5983986;29;20070;-74
2023/05/15 06:20:41;;;;;;;5.75;3.85;;;18.70;56.20;;;;;;5982670;29;20471;-75
2023/05/15 06:23:49;;;;;;;4.47;3.72;;;18.80;56.20;;;;;;5975292;29;20046;-73
2023/05/15 06:27:02;;;;;;;7.32;4.40;;;18.80;56.00;;;;;;5961171;29;20066;-75
2023/05/15 06:30:17;;;;;;;7.00;4.13;;;18.90;55.90;;;;;;5973911;29;20230;-74
2023/05/15 06:33:23;;;;;;;5.50;3.92;;;18.90;55.80;;;;;;5959808;29;20125;-74
2023/05/15 06:36:32;;;;;;;9.48;4.00;;;18.90;55.80;;;;;;5961939;29;20502;-74
2023/05/15 06:39:37;;;;;;;6.47;3.90;;;18.90;55.70;;;;;;5961187;29;20035;-73
2023/05/15 06:42:47;;;;;;;5.45;3.97;;;18.90;55.70;;;;;;5958990;29;20043;-77
2023/05/15 06:45:53;;;;;;;5.25;3.65;;;18.90;55.50;;;;;;5945620;29;20530;-75
2023/05/15 06:49:01;;;;;;;7.93;4.38;;;19.00;55.30;;;;;;5961654;29;20119;-73
2023/05/15 06:52:12;;;;;;;7.30;4.40;;;19.00;55.20;;;;;;5962478;29;20046;-76
2023/05/15 06:55:21;;;;;;;7.60;3.90;;;19.20;55.10;;;;;;5988755;29;20042;-74
2023/05/15 06:58:28;;;;;;;7.32;4.30;;;19.00;54.90;;;;;;5981809;29;20052;-76
2023/05/15 07:01:37;;;;;;;5.32;4.03;;;19.10;54.90;;;;;;5996773;29;20095;-77
2023/05/15 07:04:43;;;;;;;9.95;4.22;;;19.10;54.70;;;;;;5982463;29;20114;-74
2023/05/15 07:07:53;;;;;;;6.55;4.55;;;19.10;54.60;;;;;;5996857;29;20087;-73
2023/05/15 07:11:05;;;;;;;8.02;4.40;;;19.10;54.60;;;;;;5984325;29;20101;-75
2023/05/15 07:14:18;;;;;;;8.82;4.30;;;19.10;54.70;;;;;;5982889;29;20109;-75
2023/05/15 07:17:27;;;;;;;5.45;4.05;;;19.20;54.60;;;;;;5980735;29;20042;-76
2023/05/15 07:20:34;;;;;;;7.50;4.43;;;19.30;54.40;;;;;;5996030;29;20751;-74
2023/05/15 07:23:38;;;;;;;10.43;5.95;;;19.30;54.20;;;;;;5995971;29;20187;-75
2023/05/15 07:26:48;;;;;;;6.05;4.50;;;19.40;54.10;;;;;;5981205;29;20073;-74
2023/05/15 07:29:57;;;;;;;7.82;5.22;;;19.40;54.00;;;;;;5983676;29;20046;-74
2023/05/15 07:33:09;;;;;;;7.55;4.75;;;19.50;53.80;;;;;;5996183;29;20165;-75
2023/05/15 07:36:17;;;;;;;7.40;4.72;;;19.60;53.60;;;;;;5984008;29;20567;-75
2023/05/15 07:39:24;;;;;;;7.22;4.82;;;19.80;53.40;;;;;;5983110;29;20045;-75
2023/05/15 07:42:34;;;;;;;8.55;5.43;;;19.90;52.90;;;;;;5984049;29;20110;-75
2023/05/15 07:45:40;;;;;;;7.03;4.90;;;20.00;52.70;;;;;;5982325;29;20038;-75
2023/05/15 07:48:55;;;;;;;8.25;5.22;;;20.10;52.30;;;;;;5981333;29;20275;-76
2023/05/15 07:52:06;;;;;;;11.10;5.07;;;20.20;52.10;;;;;;5996555;29;20042;-75
2023/05/15 07:55:15;;;;;;;12.30;5.40;;;20.20;51.90;;;;;;5983576;29;20034;-75
2023/05/15 07:58:23;;;;;;;9.43;5.60;;;20.10;51.70;;;;;;5983435;29;20062;-75
2023/05/15 08:01:31;;;;;;;14.45;6.47;;;20.10;51.80;;;;;;5983612;29;20083;-76
2023/05/15 08:04:37;;;;;;;14.88;6.13;;;20.00;51.90;;;;;;5984475;29;20440;-74
2023/05/15 08:07:42;;;;;;;10.68;5.90;;;20.00;52.00;;;;;;5981839;29;20087;-75
2023/05/15 08:10:49;;;;;;;10.35;6.22;;;19.90;51.90;;;;;;5984129;29;20038;-76
2023/05/15 08:14:02;;;;;;;10.32;5.82;;;19.90;51.90;;;;;;5984034;29;20118;-76
2023/05/15 08:17:15;;;;;;;9.15;5.80;;;19.90;51.90;;;;;;5983838;29;20031;-73
2023/05/15 08:20:23;;;;;;;10.40;5.97;;;19.80;52.00;;;;;;5983155;29;20042;-74
2023/05/15 08:23:30;;;;;;;11.32;5.60;;;19.80;52.10;;;;;;5984003;29;20042;-75
2023/05/15 08:26:38;;;;;;;14.00;6.25;;;19.80;52.10;;;;;;5984768;29;20023;-75
2023/05/15 08:29:46;;;;;;;23.30;12.98;;;19.70;52.10;;;;;;5985512;29;20153;-75
2023/05/15 08:32:59;;;;;;;14.80;6.65;;;19.70;52.20;;;;;;5984521;29;20398;-74
2023/05/15 08:36:09;;;;;;;8.95;5.78;;;19.60;52.30;;;;;;5987162;29;20031;-74
2023/05/15 08:39:18;;;;;;;10.68;6.43;;;19.60;52.30;;;;;;5987162;29;20038;-76
2023/05/15 08:42:58;;;;;;;10.15;6.00;;;19.60;52.20;;;;;;5988654;29;20038;-73
2023/05/15 08:46:08;;;;;;;11.15;6.70;;;19.50;52.20;;;;;;5986821;29;20030;-76
2023/05/15 08:49:34;;;;;;;11.80;6.70;;;19.60;52.20;;;;;;6001932;29;20117;-74
2023/05/15 08:52:44;;;;;;;14.27;6.70;;;19.70;52.20;;;;;;6000148;29;20065;-76
2023/05/15 08:55:51;;;;;;;9.88;6.72;;;19.80;52.00;;;;;;5985969;29;20030;-76
2023/05/15 08:59:06;;;;;;;11.38;5.75;;;19.80;51.90;;;;;;5985055;29;20038;-77
2023/05/15 09:02:17;;;;;;;11.35;6.07;;;19.80;51.90;;;;;;5988293;29;20054;-75
2023/05/15 09:05:23;;;;;;;12.95;6.10;;;19.80;52.00;;;;;;5985315;29;20566;-74
2023/05/15 09:08:35;;;;;;;11.15;6.15;;;19.80;51.90;;;;;;5984817;29;20121;-76
2023/05/15 09:11:53;;;;;;;8.43;5.40;;;19.80;51.80;;;;;;5985452;29;20030;-77
2023/05/15 09:15:16;;;;;;;11.52;5.93;;;19.90;51.70;;;;;;5987180;29;20050;-76
2023/05/15 09:18:24;;;;;;;12.90;5.45;;;20.00;51.40;;;;;;5986254;29;20129;-75
2023/05/15 09:21:36;;;;;;;10.18;5.95;;;20.00;51.30;;;;;;5985380;29;20062;-72
2023/05/15 09:24:47;;;;;;;17.30;6.22;;;20.10;51.10;;;;;;5970851;29;20137;-76
2023/05/15 09:27:52;;;;;;;7.95;5.45;;;20.10;51.10;;;;;;5983764;29;20046;-75
2023/05/15 09:31:08;;;;;;;9.07;5.55;;;20.20;51.10;;;;;;5988375;29;20118;-74
2023/05/15 09:34:19;;;;;;;10.63;5.18;;;20.30;51.00;;;;;;5985795;29;20034;-76
2023/05/15 09:37:34;;;;;;;14.73;5.45;;;20.40;50.80;;;;;;5984102;29;20136;-73
2023/05/15 09:40:39;;;;;;;10.52;4.88;;;20.50;50.60;;;;;;5983614;29;20039;-74
2023/05/15 09:43:48;;;;;;;10.27;5.55;;;20.50;50.30;;;;;;5986487;29;20092;-76
2023/05/15 09:46:58;;;;;;;7.53;5.13;;;20.50;50.20;;;;;;5998674;29;20041;-73
2023/05/15 09:50:12;;;;;;;12.93;5.88;;;20.50;50.10;;;;;;5999022;29;20038;-77
2023/05/15 09:53:23;;;;;;;7.25;5.03;;;20.50;50.20;;;;;;6002685;29;20122;-73
2023/05/15 09:56:35;;;;;;;9.70;6.07;;;20.60;50.00;;;;;;6006699;29;20034;-74
2023/05/15 09:59:48;;;;;;;7.80;5.05;;;20.80;49.90;;;;;;6006247;29;20026;-76
2023/05/15 10:03:10;;;;;;;9.75;4.93;;;20.90;49.60;;;;;;6005677;29;20054;-76
2023/05/15 10:06:25;;;;;;;10.23;5.03;;;21.00;49.40;;;;;;6006929;29;20109;-74
2023/05/15 10:09:34;;;;;;;8.98;5.13;;;20.90;49.30;;;;;;5986613;29;20031;-78
2023/05/15 10:12:44;;;;;;;9.73;5.28;;;21.20;49.40;;;;;;5983250;29;20037;-75
2023/05/15 10:15:54;;;;;;;9.45;5.07;;;21.40;49.00;;;;;;5984079;29;20395;-75
2023/05/15 10:19:09;;;;;;;7.22;4.53;;;21.60;48.60;;;;;;5984498;29;20079;-75
2023/05/15 10:22:26;;;;;;;6.20;4.05;;;21.80;48.20;;;;;;5983826;29;20039;-74
2023/05/15 10:25:43;;;;;;;9.20;4.75;;;21.90;47.90;;;;;;5982601;29;20031;-74
2023/05/15 10:28:52;;;;;;;10.15;4.40;;;22.10;48.30;;;;;;5982651;29;20030;-78
2023/05/15 10:32:00;;;;;;;7.05;4.70;;;22.20;47.10;;;;;;5983716;29;20113;-75
2023/05/15 10:35:15;;;;;;;9.63;4.38;;;22.20;46.80;;;;;;5982827;29;20038;-74
2023/05/15 10:38:24;;;;;;;5.85;3.88;;;22.20;46.70;;;;;;5982327;29;20046;-73
2023/05/15 10:41:38;;;;;;;9.73;4.30;;;22.20;46.50;;;;;;5966849;29;20038;-74
2023/05/15 10:44:43;;;;;;;11.27;4.50;;;22.20;46.70;;;;;;5983312;29;20041;-75
2023/05/15 10:47:51;;;;;;;4.95;3.50;;;22.10;46.40;;;;;;5983410;29;20031;-75
2023/05/15 10:51:02;;;;;;;;;;;22.00;46.50;;;;;;5984660;29;20539;-75
2023/05/15 10:54:12;;;;;;;10.70;3.42;;;21.90;46.60;;;;;;5977974;29;19969;-74
2023/05/15 10:57:22;;;;;;;9.68;3.70;;;21.70;46.80;;;;;;5981299;29;20045;-76
2023/05/15 11:00:34;;;;;;;7.65;3.03;;;21.50;46.80;;;;;;5983970;29;20118;-73
2023/05/15 11:03:42;;;;;;;7.10;3.70;;;21.40;47.00;;;;;;5983941;29;20045;-76
2023/05/15 11:07:11;;;;;;;9.55;3.80;;;21.40;47.20;;;;;;5982028;29;20049;-75
2023/05/15 11:10:30;;;;;;;7.47;4.15;;;21.30;47.40;;;;;;5983156;29;20037;-74
2023/05/15 11:14:09;;;;;;;7.93;4.22;;;21.30;47.70;;;;;;5982959;29;20043;-76
2023/05/15 11:17:18;;;;;;;10.73;4.78;;;21.20;47.90;;;;;;5982687;29;20030;-76
2023/05/15 11:20:56;;;;;;;8.18;3.75;;;21.20;47.80;;;;;;5984509;29;20192;-73
2023/05/15 11:24:09;;;;;;;5.28;3.38;;;21.30;47.90;;;;;;5977052;29;20039;-75
2023/05/15 11:27:30;;;;;;;7.85;4.05;;;21.30;47.50;;;;;;5985314;29;20052;-74
2023/05/15 11:30:42;;;;;;;8.63;3.58;;;21.50;47.30;;;;;;5983249;29;20079;-74
2023/05/15 11:33:54;;;;;;;8.75;4.32;;;21.60;46.90;;;;;;5997477;29;20042;-73
2023/05/15 11:37:18;;;;;;;8.77;4.07;;;21.60;46.80;;;;;;5990245;29;20034;-73
2023/05/15 11:40:29;;;;;;;7.47;4.05;;;21.80;46.80;;;;;;6016155;29;20034;-73
2023/05/15 11:43:36;;;;;;;7.85;3.65;;;21.90;46.60;;;;;;5981106;29;20041;-75
2023/05/15 11:46:47;;;;;;;4.88;3.67;;;22.00;46.40;;;;;;5980899;29;20034;-75
2023/05/15 11:49:57;;;;;;;5.95;3.88;;;22.00;46.30;;;;;;5982829;29;20046;-76
2023/05/15 11:53:16;;;;;;;7.13;4.43;;;22.20;46.10;;;;;;5982824;29;20031;-77
2023/05/15 11:56:23;;;;;;;13.13;4.28;;;22.80;45.60;;;;;;5984379;29;20041;-75
2023/05/15 11:59:30;;;;;;;6.72;3.85;;;23.60;44.00;;;;;;5983878;29;20053;-74
2023/05/15 12:02:38;;;;;;;6.53;4.25;;;24.10;43.00;;;;;;5983504;29;20105;-74
2023/05/15 12:05:53;;;;;;;7.78;4.18;;;24.70;42.00;;;;;;5982482;29;20058;-75
2023/05/15 12:09:02;;;;;;;5.75;4.13;;;25.20;41.10;;;;;;5982117;29;20115;-77
2023/05/15 12:12:17;;;;;;;8.13;4.28;;;25.40;40.80;;;;;;5981594;29;20034;-76
2023/05/15 12:15:22;;;;;;;5.97;3.88;;;25.60;40.30;;;;;;5981601;29;20042;-75
2023/05/15 12:18:34;;;;;;;7.82;3.78;;;25.80;40.00;;;;;;5984052;29;20063;-76
2023/05/15 12:21:49;;;;;;;6.70;4.00;;;26.20;39.10;;;;;;5996161;29;20038;-75
2023/05/15 12:24:59;;;;;;;9.38;4.13;;;26.60;38.90;;;;;;5996558;29;20122;-75
2023/05/15 12:28:10;;;;;;;5.82;3.85;;;27.00;38.10;;;;;;5982486;29;20091;-75
2023/05/15 12:31:18;;;;;;;9.70;3.92;;;27.40;37.40;;;;;;5981834;29;20099;-78
2023/05/15 12:34:26;;;;;;;6.68;3.78;;;28.20;36.60;;;;;;5980976;29;20117;-77
2023/05/15 12:37:35;;;;;;;8.00;4.07;;;28.80;35.20;;;;;;5982808;29;20048;-77
2023/05/15 12:40:48;;;;;;;10.00;4.20;;;28.80;34.40;;;;;;5996263;29;20796;-73
2023/05/15 12:43:56;;;;;;;6.63;4.43;;;28.40;34.60;;;;;;5981095;29;20042;-74
2023/05/15 12:47:06;;;;;;;8.45;4.70;;;27.60;35.70;;;;;;5981141;29;20042;-76
2023/05/15 12:50:25;;;;;;;10.80;5.25;;;26.80;37.10;;;;;;5966291;29;20046;-76
2023/05/15 12:53:34;;;;;;;6.25;4.50;;;26.00;38.90;;;;;;5980857;29;20191;-75
2023/05/15 12:56:39;;;;;;;8.52;4.35;;;25.70;39.50;;;;;;5982103;29;20047;-75
2023/05/15 12:59:49;;;;;;;7.18;4.45;;;25.50;39.90;;;;;;5982147;29;20041;-74
2023/05/15 13:03:00;;;;;;;7.25;4.43;;;25.20;40.20;;;;;;5981713;29;20400;-75
2023/05/15 13:06:11;;;;;;;7.55;4.15;;;24.70;41.10;;;;;;5980173;29;20037;-76
2023/05/15 13:09:28;;;;;;;9.65;5.03;;;24.20;42.10;;;;;;5981246;29;20085;-76
2023/05/15 13:12:48;;;;;;;10.52;4.57;;;23.60;43.20;;;;;;5980367;29;20073;-75
2023/05/15 13:16:01;;;;;;;7.30;4.10;;;23.20;44.40;;;;;;5995382;29;20042;-76
2023/05/15 13:19:09;;;;;;;6.07;4.10;;;22.80;44.80;;;;;;5980144;29;20403;-76
2023/05/15 13:22:18;;;;;;;5.20;3.78;;;22.60;44.90;;;;;;5998597;29;20038;-76
2023/05/15 13:25:29;;;;;;;7.25;4.05;;;23.20;44.40;;;;;;5985972;29;20145;-75
2023/05/15 13:28:34;;;;;;;6.20;4.15;;;24.60;42.00;;;;;;5984085;29;20030;-76
2023/05/15 13:31:41;;;;;;;8.25;4.38;;;25.30;39.70;;;;;;5962431;29;20031;-75
2023/05/15 13:34:53;;;;;;;16.70;5.30;;;25.20;39.50;;;;;;5993750;29;20042;-75
2023/05/15 13:38:05;;;;;;;6.18;4.32;;;25.00;39.80;;;;;;5986227;29;20106;-75
2023/05/15 13:41:20;;;;;;;7.68;5.00;;;24.60;40.50;;;;;;5983718;29;20122;-75
2023/05/15 13:44:30;;;;;;;7.63;4.80;;;24.10;41.30;;;;;;5984432;29;20034;-75
2023/05/15 13:47:41;;;;;;;8.82;5.57;;;23.70;42.20;;;;;;5970092;29;20052;-77
2023/05/15 13:50:52;;;;;;;14.52;6.28;;;23.40;43.10;;;;;;5984823;29;20086;-76
2023/05/15 13:54:09;;;;;;;12.38;6.47;;;23.10;44.20;;;;;;5985745;29;20058;-78
2023/05/15 13:57:17;;;;;;;12.07;6.57;;;22.80;45.60;;;;;;5986742;29;20042;-74
2023/05/15 14:00:24;;;;;;;;;;;22.60;47.30;;;;;;5999732;29;20061;-76
2023/05/15 14:03:33;;;;;;;12.32;5.78;;;22.20;48.00;;;;;;5984016;29;19927;-74
2023/05/15 14:06:37;;;;;;;9.82;6.38;;;22.00;48.20;;;;;;5985858;29;20101;-75
2023/05/15 14:09:43;;;;;;;12.98;7.30;;;21.80;48.70;;;;;;5999666;29;20042;-76
2023/05/15 14:12:50;;;;;;;8.80;5.80;;;21.70;49.30;;;;;;5985317;29;20041;-75
2023/05/15 14:16:00;;;;;;;11.77;6.00;;;21.50;49.60;;;;;;5998625;29;20038;-75
2023/05/15 14:19:12;;;;;;;13.63;7.13;;;21.40;50.00;;;;;;5984140;29;20031;-75
2023/05/15 14:22:24;;;;;;;9.90;5.78;;;21.50;50.30;;;;;;5985726;29;20062;-77
2023/05/15 14:25:35;;;;;;;12.20;5.88;;;21.90;49.90;;;;;;5986364;29;20103;-75
2023/05/15 14:28:47;;;;;;;11.40;6.28;;;22.50;48.50;;;;;;5984470;29;20061;-75
2023/05/15 14:31:54;;;;;;;7.90;5.53;;;23.00;47.40;;;;;;5976952;29;20038;-76
2023/05/15 14:35:09;;;;;;;10.18;5.90;;;23.10;46.80;;;;;;5966095;29;20060;-76
2023/05/15 14:38:16;;;;;;;9.05;4.95;;;23.20;46.70;;;;;;5967929;29;20039;-75
2023/05/15 14:41:22;;;;;;;6.88;5.07;;;23.20;47.00;;;;;;5966044;29;20031;-76
2023/05/15 14:44:34;;;;;;;11.23;5.80;;;23.20;46.30;;;;;;5976697;29;20062;-75
2023/05/15 14:47:42;;;;;;;9.23;5.32;;;23.00;46.60;;;;;;5963308;29;20038;-76
2023/05/15 14:50:51;;;;;;;9.82;5.50;;;22.90;46.90;;;;;;5985451;29;20034;-77
2023/05/15 14:54:06;;;;;;;10.25;5.95;;;23.00;46.90;;;;;;5981760;29;20101;-74
2023/05/15 14:57:12;;;;;;;10.75;5.88;;;23.10;46.20;;;;;;5960092;29;20037;-75
2023/05/15 15:00:19;;;;;;;10.32;5.40;;;23.30;46.10;;;;;;5959843;29;20042;-74
2023/05/15 15:03:31;;;;;;;10.57;5.93;;;23.60;45.50;;;;;;5960706;29;20143;-77
2023/05/15 15:06:42;;;;;;;7.97;5.35;;;23.90;44.90;;;;;;5975191;29;20134;-74
2023/05/15 15:09:49;;;;;;;9.60;5.97;;;24.00;44.40;;;;;;5975177;29;20107;-75
2023/05/15 15:12:58;;;;;;;9.05;5.13;;;24.00;44.40;;;;;;5961329;29;20063;-77
2023/05/15 15:16:10;;;;;;;10.68;5.68;;;24.00;44.50;;;;;;5961404;29;20027;-77
2023/05/15 15:19:19;;;;;;;8.80;5.65;;;24.50;44.00;;;;;;5961014;29;20037;-76
2023/05/15 15:22:30;;;;;;;15.90;6.28;;;25.90;42.10;;;;;;5970020;29;20082;-77
2023/05/15 15:25:36;;;;;;;12.57;5.25;;;27.10;40.00;;;;;;5997024;29;20110;-77
2023/05/15 15:28:45;;;;;;;9.05;5.65;;;28.20;37.90;;;;;;5983854;29;20098;-75
2023/05/15 15:31:53;;;;;;;7.70;5.00;;;28.20;37.00;;;;;;5996688;29;20582;-76
2023/05/15 15:35:06;;;;;;;9.32;5.90;;;27.50;37.80;;;;;;5996993;29;20046;-75
2023/05/15 15:38:17;;;;;;;10.73;6.15;;;26.40;38.70;;;;;;5981807;29;20053;-74
2023/05/15 15:41:25;;;;;;;11.80;6.35;;;25.40;40.90;;;;;;5981873;29;20612;-74
2023/05/15 15:44:36;;;;;;;8.38;5.28;;;24.40;42.70;;;;;;5965903;29;20080;-76
2023/05/15 15:47:44;;;;;;;5.80;3.40;;;23.50;44.70;;;;;;5983459;29;20042;-73
2023/05/15 15:50:57;;;;;;;4.18;2.80;;;22.80;46.10;;;;;;5983562;29;20094;-74
2023/05/15 15:54:08;;;;;;;3.90;2.33;;;22.00;47.40;;;;;;5997112;29;20038;-73
2023/05/15 15:57:16;;;;;;;;;;;21.30;48.60;;;;;;5983716;29;20120;-74
2023/05/15 16:00:22;;;;;;;3.30;1.95;;;20.80;49.70;;;;;;5983205;29;19921;-74
2023/05/15 16:03:30;;;;;;;2.53;2.22;;;20.50;50.20;;;;;;5980983;29;20089;-76
2023/05/15 16:06:43;;;;;;;4.05;2.80;;;20.30;50.50;;;;;;5980822;29;20031;-74
2023/05/15 16:09:52;;;;;;;5.40;2.92;;;20.30;51.10;;;;;;5981018;29;20401;-76
2023/05/15 16:13:07;;;;;;;5.05;3.08;;;20.50;50.70;;;;;;5983071;29;20041;-75
2023/05/15 16:16:19;;;;;;;8.70;2.90;;;20.50;50.50;;;;;;5981547;29;20034;-75
2023/05/15 16:19:28;;;;;;;3.78;2.72;;;21.20;49.90;;;;;;5981555;29;20061;-75
2023/05/15 16:22:40;;;;;;;5.47;3.05;;;22.10;48.20;;;;;;5979868;29;20066;-74
2023/05/15 16:25:48;;;;;;;4.28;2.53;;;22.90;46.90;;;;;;5981334;29;20466;-74
2023/05/15 16:28:58;;;;;;;3.58;2.28;;;23.70;45.40;;;;;;5980263;29;20103;-75
2023/05/15 16:32:05;;;;;;;3.40;2.40;;;23.80;45.00;;;;;;5994643;29;20047;-75